Time;durP1;ratioP1;P1;durP2;ratioP2;P2;SDS_P1;SDS_P2;PMS_P1;PMS_P2;Temp;Humidity;BMP_temperature;BMP_pressure;BME280_temperature;BME280_humidity;BME280_pressure;Samples;Min_cycle;Max_cycle;Signal;HPM_P1;HPM_P2
2024/01/31 00:01:35;;;;;;;0.10;0.10;;;;;;;-140.72;100.00;60190.34;5019554;28;20109;-72
2024/01/31 00:04:01;;;;;;;0.10;0.10;;;;;;;-140.72;100.00;60220.84;5019574;28;20049;-70
2024/01/31 00:06:27;;;;;;;0.10;0.10;;;;;;;-140.72;100.00;60235.06;5019179;28;20089;-71
2024/01/31 00:08:52;;;;;;;0.10;0.10;;;;;;;-140.72;100.00;60239.13;5014367;28;20124;-72
2024/01/31 00:11:17;;;;;;;0.10;0.10;;;;;;;-140.72;100.00;60214.72;5011321;28;20018;-72
2024/01/31 00:13:43;;;;;;;0.10;0.10;;;;;;;-140.72;100.00;60218.81;5020023;28;20053;-72
2024/01/31 00:16:08;;;;;;;0.10;0.10;;;;;;;-140.72;100.00;60255.41;5013289;28;20179;-72
2024/01/31 00:18:34;;;;;;;0.10;0.10;;;;;;;-140.72;100.00;60167.97;5017459;28;20069;-72
2024/01/31 00:20:59;;;;;;;0.10;0.10;;;;;;;-140.72;100.00;60204.56;5018583;28;20045;-72
2024/01/31 00:23:24;;;;;;;0.10;0.10;;;;;;;-140.72;100.00;60174.06;5016340;28;20021;-72
2024/01/31 00:25:50;;;;;;;0.10;0.10;;;;;;;-140.72;100.00;60174.06;5008439;28;20030;-71
2024/01/31 00:28:16;;;;;;;0.10;0.10;;;;;;;-140.72;100.00;60174.06;5018769;28;20383;-71
2024/01/31 00:30:41;;;;;;;0.10;0.10;;;;;;;-140.72;100.00;60153.75;5020716;28;20030;-71
2024/01/31 00:33:07;;;;;;;0.10;0.10;;;;;;;-140.72;100.00;60135.44;5020552;28;20029;-71
2024/01/31 00:35:33;;;;;;;0.10;0.10;;;;;;;-140.72;100.00;60151.72;5012790;28;20030;-71
2024/01/31 00:37:59;;;;;;;0.20;0.20;;;;;;;-140.72;100.00;60102.91;5017450;28;20498;-71
2024/01/31 00:40:24;;;;;;;0.10;0.10;;;;;;;-140.72;100.00;60155.78;5019570;28;20079;-71
2024/01/31 00:42:50;;;;;;;0.10;0.10;;;;;;;-140.72;100.00;60161.88;5019265;28;20033;-71
2024/01/31 00:45:15;;;;;;;0.17;0.17;;;;;;;-140.72;100.00;60151.72;5020935;28;20037;-72
2024/01/31 00:47:41;;;;;;;0.10;0.10;;;;;;;-140.72;100.00;60139.50;5050952;28;20033;-71
2024/01/31 00:50:07;;;;;;;0.10;0.10;;;;;;;-140.72;100.00;60149.69;5019732;28;20034;-70
2024/01/31 00:52:32;;;;;;;0.10;0.10;;;;;;;-140.72;100.00;60157.81;5021767;28;20423;-71
2024/01/31 00:54:58;;;;;;;0.10;0.10;;;;;;;-140.72;100.00;60137.47;5020473;28;20521;-71
2024/01/31 00:57:23;;;;;;;0.10;0.10;;;;;;;-140.72;100.00;60129.34;5020640;28;20037;-71
2024/01/31 00:59:48;;;;;;;0.10;0.10;;;;;;;-140.72;100.00;60125.28;5018362;28;20033;-71
2024/01/31 01:02:13;;;;;;;0.10;0.10;;;;;;;-140.72;100.00;60149.69;5018896;28;20029;-71
2024/01/31 01:04:39;;;;;;;0.10;0.10;;;;;;;-140.72;100.00;60149.69;5022128;28;20037;-72
2024/01/31 01:07:04;;;;;;;0.10;0.10;;;;;;;-140.72;100.00;60149.69;5021466;28;20380;-72
2024/01/31 01:09:30;;;;;;;0.10;0.10;;;;;;;-140.72;100.00;60170.00;5021191;28;20033;-72
2024/01/31 01:11:55;;;;;;;0.10;0.10;;;;;;;-140.72;100.00;60149.69;5014869;28;20030;-72
2024/01/31 01:14:20;;;;;;;0.10;0.10;;;;;;;-140.72;100.00;60178.13;5052453;28;20037;-71
2024/01/31 01:16:46;;;;;;;0.10;0.10;;;;;;;-140.72;100.00;60121.22;5021945;28;20026;-71
2024/01/31 01:19:11;;;;;;;0.10;0.10;;;;;;;-140.72;100.00;60147.63;5019847;28;20087;-71
2024/01/31 01:21:36;;;;;;;0.10;0.10;;;;;;;-140.72;100.00;60098.84;5018255;28;20041;-71
2024/01/31 01:24:02;;;;;;;0.10;0.10;;;;;;;-140.72;100.00;60137.47;5022712;28;20034;-71
2024/01/31 01:26:27;;;;;;;0.10;0.10;;;;;;;-140.72;100.00;60109.00;5022501;28;20029;-71
2024/01/31 01:28:53;;;;;;;0.10;0.10;;;;;;;-140.72;100.00;60135.44;5023769;28;20471;-71
2024/01/31 01:31:18;;;;;;;0.20;0.20;;;;;;;-140.72;100.00;60145.59;5019762;28;20025;-71
2024/01/31 01:33:44;;;;;;;0.10;0.10;;;;;;;-140.72;100.00;60104.94;5022610;28;20108;-71
2024/01/31 01:36:09;;;;;;;0.10;0.10;;;;;;;-140.72;100.00;60078.53;5013552;28;20180;-71
2024/01/31 01:38:36;;;;;;;0.10;0.10;;;;;;;-140.72;100.00;60060.22;5023299;28;20030;-72
2024/01/31 01:41:02;;;;;;;0.10;0.10;;;;;;;-140.72;100.00;60100.88;5029929;28;20037;-71
2024/01/31 01:43:28;;;;;;;0.10;0.10;;;;;;;-140.72;100.00;60078.53;5022791;28;20447;-72
2024/01/31 01:46:09;;;;;;;0.10;0.10;;;;;;;-140.72;100.00;60088.69;5018299;28;20119;-72
2024/01/31 01:48:35;;;;;;;0.15;0.15;;;;;;;-140.72;100.00;60090.72;5020080;28;20034;-72
2024/01/31 01:51:00;;;;;;;0.10;0.10;;;;;;;-140.72;100.00;60068.34;5021399;28;20085;-72
2024/01/31 01:53:26;;;;;;;0.10;0.10;;;;;;;-140.72;100.00;60052.09;5013433;28;20032;-72
2024/01/31 01:55:52;;;;;;;0.15;0.15;;;;;;;-140.72;100.00;59999.22;5021828;28;20029;-70
2024/01/31 01:58:17;;;;;;;0.10;0.10;;;;;;;-140.72;100.00;60027.69;5019397;28;20025;-70
2024/01/31 02:00:44;;;;;;;0.10;0.10;;;;;;;-140.72;100.00;59936.22;5018546;28;20531;-70
2024/01/31 02:03:09;;;;;;;0.20;0.20;;;;;;;-140.72;100.00;59962.63;5017569;28;20025;-70
2024/01/31 02:05:38;;;;;;;0.10;0.10;;;;;;;-140.72;100.00;59852.84;5020224;28;20037;-70
2024/01/31 02:08:05;;;;;;;0.10;0.10;;;;;;;-140.72;100.00;59891.47;5012146;28;20044;-70
2024/01/31 02:10:30;;;;;;;0.10;0.10;;;;;;;-140.72;100.00;59885.38;5018104;28;20079;-71
2024/01/31 02:12:55;;;;;;;0.10;0.10;;;;;;;-140.72;100.00;59793.91;5019631;28;20049;-71
2024/01/31 02:15:21;;;;;;;0.10;0.10;;;;;;;-140.72;100.00;59781.69;5016229;28;20034;-71
2024/01/31 02:17:46;;;;;;;0.10;0.10;;;;;;;-140.72;100.00;59783.75;5017835;28;20074;-71
2024/01/31 02:20:15;;;;;;;0.10;0.10;;;;;;;-140.72;100.00;59791.88;5020903;28;20029;-71
2024/01/31 02:22:42;;;;;;;0.10;0.10;;;;;;;-140.72;100.00;59800.00;5017575;28;20072;-71
2024/01/31 02:25:12;;;;;;;0.10;0.10;;;;;;;-140.72;100.00;59789.84;5018332;28;20025;-71
2024/01/31 02:27:37;;;;;;;0.10;0.10;;;;;;;-140.72;100.00;59759.34;5011094;28;20059;-71
2024/01/31 02:30:03;;;;;;;0.10;0.10;;;;;;;-140.72;100.00;59806.09;5018170;28;20071;-71
2024/01/31 02:32:28;;;;;;;0.10;0.10;;;;;;;-140.72;100.00;59797.97;5016269;28;20053;-71
2024/01/31 02:34:54;;;;;;;0.10;0.10;;;;;;;-140.72;100.00;59802.03;5013378;28;20468;-71
2024/01/31 02:37:19;;;;;;;0.10;0.10;;;;;;;-140.72;100.00;59869.13;5017627;28;20064;-71
2024/01/31 02:39:44;;;;;;;0.10;0.10;;;;;;;-140.72;100.00;59824.41;5020520;28;20029;-70
2024/01/31 02:42:10;;;;;;;0.10;0.10;;;;;;;-140.72;100.00;59844.72;5020356;28;20068;-71
2024/01/31 02:44:35;;;;;;;0.10;0.10;;;;;;;-140.72;100.00;59889.44;5019033;28;20108;-71
2024/01/31 02:47:00;;;;;;;0.10;0.10;;;;;;;-140.72;100.00;59865.06;5019930;28;20090;-72
2024/01/31 02:49:26;;;;;;;0.10;0.10;;;;;;;-140.72;100.00;59824.41;5018663;28;20024;-71
2024/01/31 02:51:52;;;;;;;0.10;0.10;;;;;;;-140.72;100.00;59869.13;5019486;28;20141;-71
2024/01/31 02:54:18;;;;;;;0.10;0.10;;;;;;;-140.72;100.00;59858.94;5017939;28;20360;-71
2024/01/31 02:56:43;;;;;;;0.10;0.10;;;;;;;-140.72;100.00;59875.22;5019714;28;20034;-71
2024/01/31 02:59:08;;;;;;;0.10;0.10;;;;;;;-140.72;100.00;59885.38;5019061;28;20017;-71
2024/01/31 03:01:36;;;;;;;0.10;0.10;;;;;;;-140.72;100.00;59804.06;5019047;28;20034;-71
2024/01/31 03:04:01;;;;;;;0.10;0.10;;;;;;;-140.72;100.00;59860.97;5019441;28;20029;-71
2024/01/31 03:06:26;;;;;;;0.10;0.10;;;;;;;-140.72;100.00;59846.75;5016119;28;20022;-71
2024/01/31 03:08:52;;;;;;;0.10;0.10;;;;;;;-140.72;100.00;59769.50;5021574;28;20376;-71
2024/01/31 03:11:17;;;;;;;0.10;0.10;;;;;;;-140.72;100.00;59816.25;5017993;28;20064;-71
2024/01/31 03:13:42;;;;;;;0.10;0.10;;;;;;;-140.72;100.00;59800.00;5018221;28;20045;-72
2024/01/31 03:16:07;;;;;;;0.10;0.10;;;;;;;-140.72;100.00;59808.13;5013950;28;20318;-72
2024/01/31 03:18:33;;;;;;;0.10;0.10;;;;;;;-140.72;100.00;59751.22;5019293;28;20044;-72
2024/01/31 03:20:58;;;;;;;0.10;0.10;;;;;;;-140.72;100.00;59732.91;5017508;28;20045;-72
2024/01/31 03:23:23;;;;;;;0.10;0.10;;;;;;;-140.72;100.00;59763.41;5024816;28;20037;-70
2024/01/31 03:25:50;;;;;;;0.10;0.10;;;;;;;-140.72;100.00;59763.41;5023950;28;20029;-71
2024/01/31 03:28:15;;;;;;;0.10;0.10;;;;;;;-140.72;100.00;59734.94;5016041;28;20101;-71
2024/01/31 03:30:41;;;;;;;0.10;0.10;;;;;;;-140.72;100.00;59736.97;5012194;28;20156;-71
2024/01/31 03:33:06;;;;;;;0.10;0.10;;;;;;;-140.72;100.00;59736.97;5015206;28;20034;-71
2024/01/31 03:35:31;;;;;;;0.10;0.10;;;;;;;-140.72;100.00;59730.88;5016828;28;20053;-71
2024/01/31 03:37:57;;;;;;;0.10;0.10;;;;;;;-140.72;100.00;59712.59;5015647;28;20479;-72
2024/01/31 03:40:22;;;;;;;0.10;0.10;;;;;;;-140.72;100.00;59706.50;5016261;28;20026;-71
2024/01/31 03:42:47;;;;;;;0.10;0.10;;;;;;;-140.72;100.00;59667.88;5015241;28;20519;-71
2024/01/31 03:45:13;;;;;;;0.10;0.10;;;;;;;-140.72;100.00;59659.72;5018699;28;20180;-71
2024/01/31 03:47:38;;;;;;;0.10;0.10;;;;;;;-140.72;100.00;59665.81;5019158;28;20025;-71
2024/01/31 03:50:07;;;;;;;0.10;0.10;;;;;;;-140.72;100.00;59621.09;5011564;28;20037;-71
2024/01/31 03:52:32;;;;;;;0.10;0.10;;;;;;;-140.72;100.00;59560.13;5019476;28;20083;-71
2024/01/31 03:54:58;;;;;;;0.10;0.10;;;;;;;-140.72;100.00;59566.22;5015872;28;20033;-71
2024/01/31 03:57:23;;;;;;;0.10;0.10;;;;;;;-140.72;100.00;59549.97;5017329;28;20399;-71
2024/01/31 03:59:49;;;;;;;0.10;0.10;;;;;;;-140.72;100.00;59521.50;5018369;28;20021;-71
2024/01/31 04:02:14;;;;;;;0.10;0.10;;;;;;;-140.72;100.00;59456.44;5019641;28;20395;-71
2024/01/31 04:04:39;;;;;;;0.10;0.10;;;;;;;-140.72;100.00;59438.16;5013804;28;20037;-71
2024/01/31 04:07:04;;;;;;;0.10;0.10;;;;;;;-140.72;100.00;59360.91;5013747;28;20034;-71
2024/01/31 04:09:30;;;;;;;0.10;0.10;;;;;;;-140.72;100.00;59328.38;5026171;28;20033;-71
2024/01/31 04:11:55;;;;;;;0.10;0.10;;;;;;;-140.72;100.00;59275.53;5016638;28;20379;-71
2024/01/31 04:14:20;;;;;;;0.10;0.10;;;;;;;-140.72;100.00;59175.94;5020686;28;20475;-71
2024/01/31 04:16:47;;;;;;;0.10;0.10;;;;;;;-140.72;100.00;59110.91;5016389;28;20120;-71
2024/01/31 04:19:12;;;;;;;0.10;0.10;;;;;;;-140.72;100.00;59019.44;5020206;28;20491;-71
2024/01/31 04:21:38;;;;;;;0.20;0.20;;;;;;;-140.72;100.00;58970.66;5015668;28;20120;-71
2024/01/31 04:24:03;;;;;;;0.10;0.10;;;;;;;-140.72;100.00;58944.22;5022587;28;20084;-71
2024/01/31 04:26:28;;;;;;;0.10;0.10;;;;;;;-140.72;100.00;58864.97;5018099;28;20104;-71
2024/01/31 04:28:54;;;;;;;0.10;0.10;;;;;;;-140.72;100.00;58804.00;5015064;28;20123;-71
2024/01/31 04:31:19;;;;;;;0.10;0.10;;;;;;;-140.72;100.00;58812.13;5017205;28;20029;-71
2024/01/31 04:33:44;;;;;;;0.10;0.10;;;;;;;-140.72;100.00;58795.88;5020488;28;20034;-71
2024/01/31 04:36:10;;;;;;;0.10;0.10;;;;;;;-140.72;100.00;58791.81;5020980;28;20414;-71
2024/01/31 04:38:35;;;;;;;0.10;0.10;;;;;;;-140.72;100.00;58763.34;5018810;28;20121;-71
2024/01/31 04:41:04;;;;;;;0.10;0.10;;;;;;;-140.72;100.00;58791.81;5015831;28;20030;-71
2024/01/31 04:43:30;;;;;;;0.10;0.10;;;;;;;-140.72;100.00;58818.22;5047346;28;20033;-71
2024/01/31 04:45:55;;;;;;;0.10;0.10;;;;;;;-140.72;100.00;58854.81;5027844;28;20034;-71
2024/01/31 04:48:21;;;;;;;0.10;0.10;;;;;;;-140.72;100.00;58887.31;5021978;28;20109;-71
2024/01/31 04:50:46;;;;;;;0.10;0.10;;;;;;;-140.72;100.00;58903.59;5014230;28;20037;-71
2024/01/31 04:53:11;;;;;;;0.10;0.10;;;;;;;-140.72;100.00;58966.59;5018049;28;20026;-71
2024/01/31 04:55:37;;;;;;;0.10;0.10;;;;;;;-140.72;100.00;58982.84;5018067;28;20029;-71
2024/01/31 04:58:02;;;;;;;0.10;0.10;;;;;;;-140.72;100.00;59056.03;5017976;28;20045;-71
2024/01/31 05:00:28;;;;;;;0.10;0.10;;;;;;;-140.72;100.00;59056.03;5017066;28;20557;-71
2024/01/31 05:02:53;;;;;;;0.10;0.10;;;;;;;-140.72;100.00;59082.44;5014453;28;20476;-71
2024/01/31 05:05:21;;;;;;;0.10;0.10;;;;;;;-140.72;100.00;59121.06;5021023;28;20097;-71
2024/01/31 05:07:47;;;;;;;0.10;0.10;;;;;;;-140.72;100.00;59155.63;5023269;28;20036;-71
2024/01/31 05:10:12;;;;;;;0.10;0.10;;;;;;;-140.72;100.00;59143.41;5020734;28;20116;-72
2024/01/31 05:12:38;;;;;;;0.10;0.10;;;;;;;-140.72;100.00;59137.31;5016996;28;20099;-72
2024/01/31 05:15:04;;;;;;;0.10;0.10;;;;;;;-140.72;100.00;59141.38;5014290;28;20033;-71
2024/01/31 05:17:30;;;;;;;0.10;0.10;;;;;;;-140.72;100.00;59153.59;5013718;28;20038;-71
2024/01/31 05:19:55;;;;;;;0.10;0.10;;;;;;;-140.72;100.00;59157.66;5020974;28;20431;-71
2024/01/31 05:22:20;;;;;;;0.10;0.10;;;;;;;-140.72;100.00;59133.25;5013037;28;20034;-72
2024/01/31 05:24:46;;;;;;;0.10;0.10;;;;;;;-140.72;100.00;59204.41;5011325;28;20030;-73
2024/01/31 05:27:11;;;;;;;0.10;0.10;;;;;;;-140.72;100.00;59177.97;5009908;28;20099;-71
2024/01/31 05:29:36;;;;;;;0.10;0.10;;;;;;;-140.72;100.00;59206.44;5016905;28;20021;-72
2024/01/31 05:32:03;;;;;;;0.10;0.10;;;;;;;-140.72;100.00;59212.53;5011854;28;20037;-72
2024/01/31 05:34:29;;;;;;;0.10;0.10;;;;;;;-140.72;100.00;59238.97;5017443;28;20475;-73
2024/01/31 05:36:54;;;;;;;0.10;0.10;;;;;;;-140.72;100.00;59249.13;5013515;28;20078;-72
2024/01/31 05:39:19;;;;;;;0.10;0.10;;;;;;;-140.72;100.00;59255.22;5013988;28;20391;-72
2024/01/31 05:41:45;;;;;;;0.10;0.10;;;;;;;-140.72;100.00;59312.13;5017153;28;20045;-72
2024/01/31 05:44:10;;;;;;;0.10;0.10;;;;;;;-140.72;100.00;59285.72;5017088;28;20353;-72
2024/01/31 05:46:36;;;;;;;0.10;0.10;;;;;;;-140.72;100.00;59314.16;5014945;28;20048;-71
2024/01/31 05:49:04;;;;;;;0.10;0.10;;;;;;;-140.72;100.00;59322.28;5017369;28;20033;-71
2024/01/31 05:51:30;;;;;;;0.10;0.10;;;;;;;-140.72;100.00;59301.97;5019209;28;20175;-73
2024/01/31 05:53:55;;;;;;;0.30;0.30;;;;;;;-140.72;100.00;59322.28;5012597;28;20041;-71
2024/01/31 05:56:21;;;;;;;0.40;0.40;;;;;;;-140.72;100.00;59259.28;5017499;28;20026;-71
2024/01/31 05:58:46;;;;;;;0.10;0.10;;;;;;;-140.72;100.00;59206.44;5017943;28;20029;-71
2024/01/31 06:01:12;;;;;;;0.20;0.20;;;;;;;-140.72;100.00;59125.13;5023187;28;20018;-71
2024/01/31 06:03:37;;;;;;;0.10;0.10;;;;;;;-140.72;100.00;59043.81;5013348;28;20069;-71
2024/01/31 06:06:03;;;;;;;0.10;0.10;;;;;;;-140.72;100.00;58946.28;5015545;28;20526;-71
2024/01/31 06:08:28;;;;;;;0.10;0.10;;;;;;;-140.72;100.00;58824.31;5015445;28;20033;-71
2024/01/31 06:10:58;;;;;;;0.10;0.10;;;;;;;-140.72;100.00;58787.75;5008240;28;20121;-72
2024/01/31 06:13:23;;;;;;;0.13;0.13;;;;;;;-140.72;100.00;58738.97;5013568;28;20057;-72
2024/01/31 06:15:48;;;;;;;0.10;0.10;;;;;;;-140.72;100.00;58625.16;5018102;28;20045;-72
2024/01/31 06:18:15;;;;;;;0.10;0.10;;;;;;;-140.72;100.00;58484.94;5018636;28;20041;-72
2024/01/31 06:20:43;;;;;;;0.08;0.08;;;;;;;-140.72;100.00;58383.31;5015649;28;20034;-75
2024/01/31 06:23:10;;;;;;;0.10;0.10;;;;;;;-140.72;100.00;58275.59;5018349;28;20046;-72
2024/01/31 06:25:39;;;;;;;0.10;0.10;;;;;;;-140.72;100.00;58216.69;5015267;28;20087;-72
2024/01/31 06:28:06;;;;;;;0.10;0.10;;;;;;;-140.72;100.00;58043.94;5010582;28;20037;-72
2024/01/31 06:30:34;;;;;;;0.10;0.10;;;;;;;-140.72;100.00;57966.72;5017387;28;20033;-72
2024/01/31 06:33:06;;;;;;;0.10;0.10;;;;;;;-140.72;100.00;57859.03;5013489;28;20111;-72
2024/01/31 06:35:31;;;;;;;0.10;0.10;;;;;;;-140.72;100.00;57763.53;5019755;28;20164;-71
2024/01/31 06:37:57;;;;;;;0.10;0.10;;;;;;;-140.72;100.00;57694.47;5020448;28;20081;-71
2024/01/31 06:40:22;;;;;;;0.20;0.20;;;;;;;-140.72;100.00;57609.13;5018846;28;20029;-71
2024/01/31 06:42:52;;;;;;;0.43;0.43;;;;;;;-140.72;100.00;57426.28;5017917;28;20049;-71
2024/01/31 06:45:17;;;;;;;0.10;0.10;;;;;;;-140.72;100.00;57314.53;5015159;28;20108;-71
2024/01/31 06:47:43;;;;;;;0.10;0.10;;;;;;;-140.72;100.00;57221.06;5020666;28;20041;-72
2024/01/31 06:50:08;;;;;;;0.10;0.10;;;;;;;-140.72;100.00;57145.91;5031056;28;20059;-72
2024/01/31 06:52:34;;;;;;;0.10;0.10;;;;;;;-140.72;100.00;57013.84;5016318;28;20049;-72
2024/01/31 06:55:01;;;;;;;0.10;0.10;;;;;;;-140.72;100.00;56973.22;5016386;28;20038;-72
2024/01/31 06:57:28;;;;;;;0.10;0.10;;;;;;;-140.72;100.00;56896.03;5014907;28;20061;-73
2024/01/31 06:59:53;;;;;;;0.10;0.10;;;;;;;-140.72;100.00;56818.84;5016556;28;20116;-71
2024/01/31 07:02:18;;;;;;;0.10;0.10;;;;;;;-140.72;100.00;56800.56;5018826;28;20080;-71
2024/01/31 07:04:44;;;;;;;0.10;0.10;;;;;;;-140.72;100.00;56735.56;5013367;28;20061;-75
2024/01/31 07:07:09;;;;;;;0.20;0.20;;;;;;;-140.72;100.00;56621.81;5012875;28;20105;-71
2024/01/31 07:09:34;;;;;;;0.10;0.10;;;;;;;-140.72;100.00;56605.53;5025199;28;20037;-72
2024/01/31 07:12:00;;;;;;;0.10;0.10;;;;;;;-140.72;100.00;56475.53;5012005;28;20049;-71
2024/01/31 07:14:25;;;;;;;0.10;0.10;;;;;;;-140.72;100.00;56436.97;5013384;28;20049;-71
2024/01/31 07:16:50;;;;;;;0.10;0.10;;;;;;;-140.72;100.00;56430.88;5026304;28;20017;-71
2024/01/31 07:19:17;;;;;;;0.10;0.10;;;;;;;-140.72;100.00;56457.25;5023301;28;20046;-72
2024/01/31 07:21:42;;;;;;;0.10;0.10;;;;;;;-140.72;100.00;56402.44;5012788;28;20036;-72
2024/01/31 07:24:08;;;;;;;0.10;0.10;;;;;;;-140.72;100.00;56392.28;5013027;28;20402;-72
2024/01/31 07:26:33;;;;;;;0.10;0.10;;;;;;;-140.72;100.00;56406.50;5019052;28;20042;-71
2024/01/31 07:28:58;;;;;;;0.10;0.10;;;;;;;-140.72;100.00;56376.03;5016191;28;20025;-72
2024/01/31 07:31:24;;;;;;;0.10;0.10;;;;;;;-140.72;100.00;56374.00;5008306;28;20383;-72
2024/01/31 07:33:49;;;;;;;0.10;0.10;;;;;;;-140.72;100.00;56337.44;5010770;28;20124;-71
2024/01/31 07:36:15;;;;;;;0.13;0.13;;;;;;;-140.72;100.00;56266.34;5019289;28;20490;-71
2024/01/31 07:38:44;;;;;;;0.10;0.10;;;;;;;-140.72;100.00;56219.63;5020804;28;20034;-72
2024/01/31 07:41:10;;;;;;;0.10;0.10;;;;;;;-140.72;100.00;56278.53;5011395;28;20031;-71
2024/01/31 07:43:36;;;;;;;0.10;0.10;;;;;;;-140.72;100.00;56268.38;5016762;28;20030;-72
2024/01/31 07:46:01;;;;;;;0.10;0.10;;;;;;;-140.72;100.00;56246.03;5010170;28;20113;-72
2024/01/31 07:48:26;;;;;;;0.10;0.10;;;;;;;-140.72;100.00;56213.53;5011096;28;20040;-71
2024/01/31 07:50:52;;;;;;;0.52;0.43;;;;;;;-140.72;100.00;56294.78;5014605;28;20026;-71
2024/01/31 07:53:17;;;;;;;0.10;0.10;;;;;;;-140.72;100.00;56300.88;5018854;28;20476;-71
2024/01/31 07:55:42;;;;;;;0.10;0.10;;;;;;;-140.72;100.00;56315.09;5008774;28;20042;-72
2024/01/31 07:58:08;;;;;;;0.10;0.10;;;;;;;-140.72;100.00;56311.03;5016896;28;20034;-72
2024/01/31 08:00:33;;;;;;;0.10;0.10;;;;;;;-140.72;100.00;56376.03;4998961;28;20507;-72
2024/01/31 08:02:58;;;;;;;0.10;0.10;;;;;;;-140.72;100.00;56441.03;5013239;28;20494;-72
2024/01/31 08:05:24;;;;;;;0.10;0.10;;;;;;;-140.72;100.00;56495.88;5004739;28;20034;-72
2024/01/31 08:07:49;;;;;;;0.20;0.20;;;;;;;-140.72;100.00;56499.91;5018082;28;20472;-73
2024/01/31 08:10:14;;;;;;;0.10;0.10;;;;;;;-140.72;100.00;56544.59;5020386;28;20045;-73
2024/01/31 08:12:41;;;;;;;0.10;0.10;;;;;;;-140.72;100.00;56501.94;5017160;28;20025;-72
2024/01/31 08:15:07;;;;;;;0.10;0.10;;;;;;;-140.72;100.00;56524.28;5014942;28;20026;-72
2024/01/31 08:17:32;;;;;;;0.10;0.10;;;;;;;-140.72;100.00;56512.09;5011738;28;20088;-73
2024/01/31 08:19:57;;;;;;;0.13;0.13;;;;;;;-140.72;100.00;56538.50;4995499;28;20555;-73
2024/01/31 08:22:23;;;;;;;0.10;0.10;;;;;;;-140.72;100.00;56491.78;5002530;28;20052;-73
2024/01/31 08:24:49;;;;;;;0.10;0.10;;;;;;;-140.72;100.00;56481.63;5010882;28;20108;-72
2024/01/31 08:27:17;;;;;;;0.10;0.10;;;;;;;-140.72;100.00;56548.66;5013006;28;20026;-72
2024/01/31 08:29:43;;;;;;;0.10;0.10;;;;;;;-140.72;100.00;56532.41;5009434;28;20034;-72
2024/01/31 08:32:08;;;;;;;0.10;0.10;;;;;;;-140.72;100.00;56508.03;5025450;28;20116;-73
2024/01/31 08:34:34;;;;;;;0.10;0.10;;;;;;;-140.72;100.00;56510.06;5021513;28;20037;-73
2024/01/31 08:36:59;;;;;;;0.10;0.10;;;;;;;-140.72;100.00;56471.50;5010551;28;20030;-73
2024/01/31 08:39:24;;;;;;;0.10;0.10;;;;;;;-140.72;100.00;56489.78;5013204;28;20488;-73
2024/01/31 08:41:50;;;;;;;0.10;0.10;;;;;;;-140.72;100.00;56497.88;5017598;28;20027;-73
2024/01/31 08:44:15;;;;;;;0.10;0.10;;;;;;;-140.72;100.00;56526.31;5013764;28;20483;-73
2024/01/31 08:46:41;;;;;;;0.10;0.10;;;;;;;-140.72;100.00;56516.16;5012707;28;20365;-73
2024/01/31 08:49:06;;;;;;;0.10;0.10;;;;;;;-140.72;100.00;56522.25;5018877;28;20045;-72
2024/01/31 08:51:33;;;;;;;0.10;0.10;;;;;;;-140.72;100.00;56579.13;5011407;28;20487;-72
2024/01/31 08:53:58;;;;;;;0.10;0.10;;;;;;;-140.72;100.00;56593.34;5010874;28;20046;-73
2024/01/31 08:56:23;;;;;;;0.10;0.10;;;;;;;-140.72;100.00;56609.63;5013798;28;20236;-73
2024/01/31 08:58:49;;;;;;;0.10;0.10;;;;;;;-140.72;100.00;56664.47;5013431;28;20052;-75
2024/01/31 09:01:14;;;;;;;0.10;0.10;;;;;;;-140.72;100.00;56699.00;5009711;28;20057;-73
2024/01/31 09:03:39;;;;;;;0.10;0.10;;;;;;;-140.72;100.00;56747.75;5017411;28;20038;-73
2024/01/31 09:06:05;;;;;;;0.10;0.10;;;;;;;-140.72;100.00;56812.75;5018015;28;20029;-73
2024/01/31 09:08:31;;;;;;;0.50;0.50;;;;;;;-140.72;100.00;56835.09;5013868;28;20034;-73
2024/01/31 09:10:57;;;;;;;0.10;0.10;;;;;;;-140.72;100.00;56831.03;5015390;28;20029;-73
2024/01/31 09:13:23;;;;;;;0.10;0.10;;;;;;;-140.72;100.00;56912.28;5011584;28;20117;-73
2024/01/31 09:15:49;;;;;;;0.10;0.10;;;;;;;-140.72;100.00;56910.25;5022539;28;20567;-73
2024/01/31 09:18:14;;;;;;;0.20;0.20;;;;;;;-140.72;100.00;56954.94;5011595;28;20091;-73
2024/01/31 09:20:40;;;;;;;0.10;0.10;;;;;;;-140.72;100.00;57019.94;5015259;28;20129;-73
2024/01/31 09:23:05;;;;;;;0.10;0.10;;;;;;;-140.72;100.00;57026.03;5012954;28;20139;-73
2024/01/31 09:25:31;;;;;;;0.52;0.38;;;;;;;-140.72;100.00;57087.00;5015309;28;20127;-73
2024/01/31 09:27:56;;;;;;;0.10;0.10;;;;;;;-140.72;100.00;57107.31;5013573;28;20026;-74
2024/01/31 09:30:21;;;;;;;0.10;0.10;;;;;;;-140.72;100.00;57198.72;5012132;28;20558;-73
2024/01/31 09:32:47;;;;;;;0.10;0.10;;;;;;;-140.72;100.00;57227.16;5020311;28;20101;-73
2024/01/31 09:35:12;;;;;;;0.10;0.10;;;;;;;-140.72;100.00;57261.69;5016035;28;20095;-73
2024/01/31 09:37:37;;;;;;;0.10;0.10;;;;;;;-140.72;100.00;57308.44;5019678;28;20052;-72
2024/01/31 09:40:05;;;;;;;0.10;0.10;;;;;;;-140.72;100.00;57361.25;5011654;28;20037;-72
2024/01/31 09:42:30;;;;;;;0.10;0.10;;;;;;;-140.72;100.00;57397.81;5016239;28;20089;-73
2024/01/31 09:44:57;;;;;;;0.10;0.10;;;;;;;-140.72;100.00;57426.28;5014460;28;20499;-73
2024/01/31 09:47:26;;;;;;;0.10;0.10;;;;;;;-140.72;100.00;57403.91;5022065;28;20029;-72
2024/01/31 09:49:51;;;;;;;0.10;0.10;;;;;;;-140.72;100.00;57497.38;5019389;28;20344;-73
2024/01/31 09:52:24;;;;;;;0.10;0.10;;;;;;;-140.72;100.00;57550.19;5012879;28;20026;-72
2024/01/31 09:54:51;;;;;;;0.10;0.10;;;;;;;-140.72;100.00;57507.53;5015444;28;20039;-72
2024/01/31 09:57:17;;;;;;;0.22;0.22;;;;;;;-140.72;100.00;57560.38;5011603;28;20030;-72
2024/01/31 09:59:43;;;;;;;0.10;0.10;;;;;;;-140.72;100.00;57580.69;5025935;28;20033;-72
2024/01/31 10:02:09;;;;;;;0.10;0.10;;;;;;;-140.72;100.00;57576.63;5013493;28;20033;-72
2024/01/31 10:04:34;;;;;;;0.10;0.10;;;;;;;-140.72;100.00;57592.88;5018526;28;20044;-72
2024/01/31 10:07:00;;;;;;;0.20;0.20;;;;;;;-140.72;100.00;57580.69;5014733;28;20108;-72
2024/01/31 10:09:25;;;;;;;0.10;0.10;;;;;;;-140.72;100.00;57554.28;5023263;28;20116;-72
2024/01/31 10:11:51;;;;;;;0.10;0.10;;;;;;;-140.72;100.00;57519.72;5016638;28;20129;-73
2024/01/31 10:14:17;;;;;;;0.10;0.10;;;;;;;-140.72;100.00;57475.03;5021319;28;20061;-73
2024/01/31 10:16:42;;;;;;;0.10;0.10;;;;;;;-140.72;100.00;57434.41;5025208;28;20096;-72
2024/01/31 10:19:08;;;;;;;0.10;0.10;;;;;;;-140.72;100.00;57377.50;5013315;28;20045;-74
2024/01/31 10:21:33;;;;;;;0.10;0.10;;;;;;;-140.72;100.00;57326.72;5011851;28;20022;-72
2024/01/31 10:24:00;;;;;;;0.10;0.10;;;;;;;-140.72;100.00;57328.75;5006503;28;20046;-73
2024/01/31 10:26:26;;;;;;;0.10;0.10;;;;;;;-140.72;100.00;57253.56;5017576;28;20022;-73
2024/01/31 10:28:52;;;;;;;0.10;0.10;;;;;;;-140.72;100.00;57219.03;5024109;28;20447;-73
2024/01/31 10:31:17;;;;;;;0.10;0.10;;;;;;;-140.72;100.00;57166.22;5019752;28;20038;-73
2024/01/31 10:33:44;;;;;;;0.40;0.40;;;;;;;-140.72;100.00;57141.84;5015201;28;20068;-73
2024/01/31 10:36:10;;;;;;;0.35;0.28;;;;;;;-140.72;100.00;57101.22;5017111;28;20455;-73
2024/01/31 10:38:36;;;;;;;0.10;0.10;;;;;;;-140.72;100.00;57137.78;5019842;28;20037;-73
2024/01/31 10:41:06;;;;;;;0.10;0.10;;;;;;;-140.72;100.00;57141.84;5011713;28;20029;-73
2024/01/31 10:43:32;;;;;;;;;;;;;;;-140.72;100.00;57074.81;5013642;28;20030;-73
2024/01/31 10:45:57;;;;;;;0.40;0.40;;;;;;;-140.72;100.00;57050.41;5011835;28;19921;-73
2024/01/31 10:48:23;;;;;;;0.10;0.10;;;;;;;-140.72;100.00;57060.59;5014028;28;20440;-73
2024/01/31 10:50:50;;;;;;;0.30;0.30;;;;;;;-140.72;100.00;57038.22;5012015;28;20685;-73
2024/01/31 10:53:18;;;;;;;0.45;0.45;;;;;;;-140.72;100.00;56952.91;5012717;28;20028;-73
2024/01/31 10:55:44;;;;;;;0.10;0.10;;;;;;;-140.72;100.00;56930.56;5011527;28;20049;-73
2024/01/31 10:58:10;;;;;;;0.10;0.10;;;;;;;-140.72;100.00;56918.38;5012986;28;20048;-73
2024/01/31 11:00:36;;;;;;;0.10;0.10;;;;;;;-140.72;100.00;56885.88;5012311;28;20040;-73
2024/01/31 11:03:02;;;;;;;0.28;0.28;;;;;;;-140.72;100.00;56869.63;5015686;28;20140;-73